createdAt,value
2019-02-26T00:01:18.455Z,69.02
2019-02-26T00:03:49.978Z,69.08
2019-02-26T00:06:25.388Z,69.55
2019-02-26T00:09:01.160Z,69.67
2019-02-26T00:11:35.653Z,69.18
2019-02-26T00:14:08.296Z,68.70
2019-02-26T00:16:42.431Z,68.55
2019-02-26T00:19:16.653Z,68.73
2019-02-26T00:21:51.760Z,69.19
2019-02-26T00:24:25.042Z,69.29
2019-02-26T00:27:00.921Z,69.09
2019-02-26T00:29:33.378Z,69.01
2019-02-26T00:32:07.135Z,69.08
2019-02-26T00:34:41.698Z,69.42
2019-02-26T00:37:14.997Z,69.76
2019-02-26T00:39:49.756Z,69.38
2019-02-26T00:42:24.271Z,69.90
2019-02-26T00:45:00.961Z,69.94
2019-02-26T00:47:34.431Z,70.21
2019-02-26T00:50:11.957Z,69.88
2019-02-26T00:52:46.326Z,69.35
2019-02-26T00:55:23.150Z,69.65
2019-02-26T00:57:56.859Z,70.05
2019-02-26T01:00:30.887Z,69.58
2019-02-26T01:03:05.960Z,69.46
2019-02-26T01:05:41.010Z,69.44
2019-02-26T01:08:15.730Z,69.27
2019-02-26T01:10:49.780Z,69.32
2019-02-26T01:13:25.640Z,69.23
2019-02-26T01:15:58.108Z,69.23
2019-02-26T01:18:31.415Z,69.42
2019-02-26T01:21:04.762Z,69.29
2019-02-26T01:23:38.062Z,69.61
2019-02-26T01:26:12.231Z,70.08
2019-02-26T01:28:48.203Z,70.17
2019-02-26T01:31:22.425Z,69.86
2019-02-26T01:33:57.387Z,70.17
2019-02-26T01:36:30.753Z,70.69
2019-02-26T01:39:09.277Z,70.17
2019-02-26T01:41:45.465Z,70.12
2019-02-26T01:44:17.096Z,70.42
2019-02-26T01:46:50.464Z,71.08
2019-02-26T01:49:25.875Z,71.43
2019-02-26T01:51:58.774Z,70.80
2019-02-26T01:54:33.527Z,70.56
2019-02-26T01:57:09.123Z,70.41
2019-02-26T01:59:42.137Z,70.47
2019-02-26T02:02:18.136Z,70.90
2019-02-26T02:04:50.476Z,71.12
2019-02-26T02:07:25.490Z,70.62
2019-02-26T02:10:00.491Z,70.68
2019-02-26T02:12:34.404Z,71.46
2019-02-26T02:15:18.089Z,71.57
2019-02-26T02:17:50.420Z,71.01
2019-02-26T02:20:23.718Z,71.01
2019-02-26T02:22:58.173Z,70.63
2019-02-26T02:25:35.266Z,70.59
2019-02-26T02:28:07.047Z,70.75
2019-02-26T02:30:40.332Z,70.56
2019-02-26T02:33:17.306Z,70.71
2019-02-26T02:35:48.631Z,70.36
2019-02-26T02:38:21.905Z,70.34
2019-02-26T02:40:55.186Z,71.16
2019-02-26T02:43:28.542Z,71.24
2019-02-26T02:46:01.840Z,71.53
2019-02-26T02:48:35.145Z,71.57
2019-02-26T02:51:10.832Z,70.85
2019-02-26T02:53:45.280Z,70.15
2019-02-26T02:56:18.474Z,69.93
2019-02-26T02:58:51.791Z,69.90
2019-02-26T03:01:28.685Z,70.29
2019-02-26T03:04:01.113Z,69.91
2019-02-26T03:06:36.059Z,69.97
2019-02-26T03:09:15.295Z,70.00
2019-02-26T03:11:50.458Z,70.39
2019-02-26T03:14:24.044Z,70.91
2019-02-26T03:16:57.326Z,70.88
2019-02-26T03:19:32.443Z,71.24
2019-02-26T03:22:07.305Z,71.58
2019-02-26T03:24:40.712Z,71.22
2019-02-26T03:27:13.988Z,71.20
2019-02-26T03:29:49.818Z,71.40
2019-02-26T03:32:22.299Z,71.32
2019-02-26T03:34:55.596Z,71.46
2019-02-26T03:37:31.230Z,71.44
2019-02-26T03:40:06.589Z,71.67
2019-02-26T03:42:41.613Z,72.40
2019-02-26T03:45:23.592Z,71.70
2019-02-26T03:47:51.781Z,71.79
2019-02-26T03:50:27.116Z,71.94
2019-02-26T03:53:00.090Z,71.85
2019-02-26T03:55:35.667Z,72.31
2019-02-26T03:58:08.488Z,73.08
2019-02-26T04:00:43.979Z,73.75
2019-02-26T04:03:17.638Z,73.64
2019-02-26T04:05:51.119Z,74.23
2019-02-26T04:08:26.833Z,74.42
2019-02-26T04:11:01.910Z,74.97
2019-02-26T04:13:34.485Z,75.04
2019-02-26T04:16:07.776Z,75.51
2019-02-26T04:18:41.587Z,75.71
2019-02-26T04:21:18.296Z,75.57
2019-02-26T04:23:50.399Z,75.46
2019-02-26T04:26:43.549Z,75.62
2019-02-26T04:29:23.175Z,75.88
2019-02-26T04:32:12.194Z,76.17
2019-02-26T04:34:51.440Z,76.46
2019-02-26T04:37:42.841Z,76.87
2019-02-26T04:40:22.188Z,77.70
2019-02-26T04:43:10.144Z,77.10
2019-02-26T04:45:54.499Z,76.90
2019-02-26T04:48:32.473Z,77.43
2019-02-26T04:51:05.966Z,77.57
2019-02-26T04:53:39.247Z,77.46
2019-02-26T04:56:14.997Z,76.99
2019-02-26T04:58:47.862Z,77.27
2019-02-26T05:01:21.163Z,77.11
2019-02-26T05:03:54.459Z,77.16
2019-02-26T05:06:27.738Z,77.29
2019-02-26T05:09:02.848Z,77.15
2019-02-26T05:11:40.403Z,77.08
2019-02-26T05:14:11.738Z,77.98
2019-02-26T05:16:46.111Z,78.40
2019-02-26T05:19:21.803Z,78.28
2019-02-26T05:21:56.777Z,77.67
2019-02-26T05:24:29.534Z,78.38
2019-02-26T05:27:15.655Z,78.33
2019-02-26T05:29:49.637Z,77.69
2019-02-26T05:32:26.634Z,77.93
2019-02-26T05:34:58.779Z,78.04
2019-02-26T05:37:34.827Z,78.39
2019-02-26T05:40:10.677Z,78.05
2019-02-26T05:42:42.766Z,77.62
2019-02-26T05:45:16.124Z,77.63
2019-02-26T05:47:51.280Z,77.94
2019-02-26T05:50:24.424Z,77.87
2019-02-26T05:53:01.389Z,77.66
2019-02-26T05:55:32.743Z,78.02
2019-02-26T05:58:07.426Z,77.63
2019-02-26T06:00:41.038Z,77.55
2019-02-26T06:03:16.291Z,77.14
2019-02-26T06:05:51.908Z,77.03
2019-02-26T06:08:26.691Z,77.22
2019-02-26T06:10:59.421Z,78.58
2019-02-26T06:13:35.526Z,77.61
2019-02-26T06:16:07.717Z,77.45
2019-02-26T06:18:41.990Z,76.91
2019-02-26T06:21:18.428Z,76.96
2019-02-26T06:23:53.078Z,76.88
2019-02-26T06:26:30.381Z,76.46
2019-02-26T06:29:01.383Z,76.46
2019-02-26T06:31:34.702Z,76.35
2019-02-26T06:34:08.828Z,76.44
2019-02-26T06:36:44.318Z,76.22
2019-02-26T06:39:20.218Z,75.27
2019-02-26T06:41:53.088Z,75.42
2019-02-26T06:44:26.389Z,75.10
2019-02-26T06:47:00.336Z,75.06
2019-02-26T06:49:34.678Z,74.70
2019-02-26T06:52:08.344Z,74.50
2019-02-26T06:54:47.642Z,74.54
2019-02-26T06:57:18.058Z,74.80
2019-02-26T06:59:53.160Z,74.23
2019-02-26T07:02:29.023Z,74.27
2019-02-26T07:05:01.431Z,74.14
2019-02-26T07:07:34.747Z,73.96
2019-02-26T07:10:13.819Z,73.85
2019-02-26T07:12:48.156Z,73.45
2019-02-26T07:15:20.889Z,73.31
2019-02-26T07:17:54.196Z,73.34
2019-02-26T07:20:33.829Z,73.33
2019-02-26T07:23:03.922Z,72.32
2019-02-26T07:25:39.445Z,72.02
2019-02-26T07:28:12.573Z,72.22
2019-02-26T07:30:46.895Z,69.29
2019-02-26T07:33:20.314Z,70.83
2019-02-26T07:35:57.425Z,70.65
2019-02-26T07:38:40.603Z,65.45
2019-02-26T07:41:06.647Z,60.03
2019-02-26T07:43:41.813Z,63.05
2019-02-26T07:46:17.042Z,65.89
2019-02-26T07:48:53.645Z,67.46
2019-02-26T07:51:25.016Z,67.93
2019-02-26T07:54:00.267Z,68.27
2019-02-26T07:56:33.424Z,68.05
2019-02-26T07:59:09.445Z,67.22
2019-02-26T08:01:43.070Z,66.63
2019-02-26T08:04:18.385Z,66.31
2019-02-26T08:06:52.393Z,66.34
2019-02-26T08:09:26.784Z,66.02
2019-02-26T08:12:01.882Z,65.20
2019-02-26T08:14:35.076Z,64.40
2019-02-26T08:17:08.355Z,64.23
2019-02-26T08:19:43.734Z,64.11
2019-02-26T08:22:16.662Z,63.58
2019-02-26T08:24:50.943Z,63.23
2019-02-26T08:27:26.296Z,62.86
2019-02-26T08:30:01.356Z,63.55
2019-02-26T08:32:34.610Z,62.94
2019-02-26T08:35:09.050Z,63.17
2019-02-26T08:37:42.331Z,63.02
2019-02-26T08:40:16.022Z,62.50
2019-02-26T08:42:49.296Z,61.33
2019-02-26T08:45:25.171Z,62.93
2019-02-26T08:47:57.664Z,62.96
2019-02-26T08:50:33.405Z,62.85
2019-02-26T08:53:05.961Z,62.48
2019-02-26T08:55:39.283Z,62.89
2019-02-26T08:58:12.637Z,62.35
2019-02-26T09:00:45.960Z,61.71
2019-02-26T09:03:20.423Z,61.43
2019-02-26T09:05:54.411Z,60.91
2019-02-26T09:08:30.762Z,61.14
2019-02-26T09:11:05.798Z,61.04
2019-02-26T09:13:41.034Z,60.89
2019-02-26T09:16:13.916Z,60.20
2019-02-26T09:18:47.183Z,59.87
2019-02-26T09:21:22.700Z,58.78
2019-02-26T09:23:57.001Z,58.69
2019-02-26T09:26:30.662Z,57.64
2019-02-26T09:29:03.981Z,58.17
2019-02-26T09:31:37.319Z,58.11
2019-02-26T09:34:10.707Z,57.18
2019-02-26T09:36:45.850Z,57.22
2019-02-26T09:39:19.194Z,56.95
2019-02-26T09:41:52.487Z,56.56
2019-02-26T09:44:26.175Z,55.94
2019-02-26T09:47:04.428Z,55.59
2019-02-26T09:49:35.986Z,55.12
2019-02-26T09:52:09.374Z,54.02
2019-02-26T09:54:45.130Z,53.63
2019-02-26T09:57:20.438Z,54.09
2019-02-26T09:59:55.260Z,54.16
2019-02-26T10:02:28.826Z,53.61
2019-02-26T10:05:02.198Z,52.71
2019-02-26T10:07:37.002Z,53.00
2019-02-26T10:10:14.154Z,52.17
2019-02-26T10:12:47.620Z,51.73
2019-02-26T10:15:20.976Z,51.69
2019-02-26T10:17:56.225Z,51.43
2019-02-26T10:20:31.651Z,51.18
2019-02-26T10:23:09.224Z,50.71
2019-02-26T10:25:42.854Z,49.69
2019-02-26T10:28:21.643Z,49.19
2019-02-26T10:30:56.975Z,49.28
2019-02-26T10:33:33.473Z,49.00
2019-02-26T10:36:08.487Z,49.45
2019-02-26T10:38:43.236Z,49.71
2019-02-26T10:41:22.765Z,49.77
2019-02-26T10:43:56.104Z,48.93
2019-02-26T10:46:32.151Z,49.42
2019-02-26T10:49:04.696Z,48.69
2019-02-26T10:51:38.037Z,48.13
2019-02-26T10:54:13.375Z,48.45
2019-02-26T10:56:46.449Z,47.79
2019-02-26T10:59:19.797Z,46.63
2019-02-26T11:01:55.277Z,46.54
2019-02-26T11:04:34.887Z,46.19
2019-02-26T11:07:04.950Z,46.12
2019-02-26T11:09:38.371Z,46.08
2019-02-26T11:12:11.719Z,46.04
2019-02-26T11:14:45.133Z,45.89
2019-02-26T11:17:20.753Z,45.05
2019-02-26T11:19:55.586Z,44.57
2019-02-26T11:22:29.598Z,44.03
2019-02-26T11:25:02.942Z,43.63
2019-02-26T11:27:38.014Z,43.96
2019-02-26T11:30:23.864Z,42.72
2019-02-26T11:33:01.982Z,41.20
2019-02-26T11:35:33.213Z,41.50
2019-02-26T11:38:09.338Z,41.67
2019-02-26T11:40:43.062Z,41.68
2019-02-26T11:43:19.484Z,41.36
2019-02-26T11:45:51.433Z,41.37
2019-02-26T11:48:25.908Z,41.51
2019-02-26T11:51:01.071Z,40.27
2019-02-26T11:53:34.827Z,40.75
2019-02-26T11:56:08.156Z,40.39
2019-02-26T11:58:41.517Z,39.69
2019-02-26T12:01:14.971Z,39.52
2019-02-26T12:03:50.478Z,39.23
2019-02-26T12:06:24.081Z,39.17
2019-02-26T12:08:57.572Z,39.17
2019-02-26T12:11:30.952Z,39.25
2019-02-26T12:14:04.407Z,38.56
2019-02-26T12:16:37.704Z,38.64
2019-02-26T12:19:11.041Z,38.34
2019-02-26T12:21:44.380Z,37.92
2019-02-26T12:24:17.707Z,37.94
2019-02-26T12:26:52.496Z,38.12
2019-02-26T12:29:28.380Z,37.78
2019-02-26T12:32:04.549Z,37.31
2019-02-26T12:34:38.563Z,36.73
2019-02-26T12:37:11.757Z,36.85
2019-02-26T12:39:47.321Z,36.21
2019-02-26T12:42:21.671Z,36.74
2019-02-26T12:44:57.536Z,36.08
2019-02-26T12:47:30.193Z,35.93
2019-02-26T12:50:05.997Z,35.09
2019-02-26T12:52:39.218Z,35.88
2019-02-26T12:55:14.332Z,35.02
2019-02-26T12:57:49.796Z,35.02
2019-02-26T13:00:24.122Z,34.54
2019-02-26T13:02:57.532Z,34.54
2019-02-26T13:05:30.832Z,33.99
2019-02-26T13:08:06.075Z,34.37
2019-02-26T13:10:41.970Z,34.04
2019-02-26T13:13:14.340Z,32.87
2019-02-26T13:15:47.707Z,32.09
2019-02-26T13:18:21.143Z,32.09
2019-02-26T13:20:59.552Z,32.33
2019-02-26T13:23:29.501Z,32.33
2019-02-26T13:26:03.870Z,32.53
2019-02-26T13:28:40.906Z,32.23
2019-02-26T13:31:17.518Z,31.91
2019-02-26T13:33:48.074Z,32.27
2019-02-26T13:36:21.475Z,31.71
2019-02-26T13:38:54.832Z,31.73
2019-02-26T13:41:30.343Z,31.66
2019-02-26T13:44:03.361Z,31.77
2019-02-26T13:46:36.775Z,31.78
2019-02-26T13:49:10.207Z,31.35
2019-02-26T13:51:43.643Z,31.35
2019-02-26T13:54:16.973Z,30.97
2019-02-26T13:56:50.391Z,30.87
2019-02-26T13:59:23.792Z,31.01
2019-02-26T14:01:57.358Z,31.07
2019-02-26T14:04:30.725Z,31.02
2019-02-26T14:07:04.068Z,30.94
2019-02-26T14:09:37.445Z,30.65
2019-02-26T14:12:10.891Z,30.70
2019-02-26T14:14:44.311Z,30.71
2019-02-26T14:17:17.630Z,30.34
2019-02-26T14:19:51.098Z,30.52
2019-02-26T14:22:24.787Z,30.28
2019-02-26T14:24:58.156Z,30.08
2019-02-26T14:27:32.389Z,29.27
2019-02-26T14:30:09.071Z,29.39
2019-02-26T14:32:42.441Z,29.68
2019-02-26T14:35:16.311Z,29.40
2019-02-26T14:37:49.728Z,29.42
2019-02-26T14:40:23.584Z,29.85
2019-02-26T14:42:57.111Z,28.97
2019-02-26T14:45:30.432Z,29.32
2019-02-26T14:48:03.851Z,29.60
2019-02-26T14:50:37.617Z,28.89
2019-02-26T14:53:11.095Z,29.36
2019-02-26T14:55:44.469Z,28.55
2019-02-26T14:58:17.948Z,28.53
2019-02-26T15:00:57.642Z,28.67
2019-02-26T15:03:26.381Z,28.48
2019-02-26T15:05:59.854Z,28.88
2019-02-26T15:08:33.290Z,28.32
2019-02-26T15:11:06.784Z,28.45
2019-02-26T15:13:40.104Z,28.14
2019-02-26T15:16:13.454Z,28.14
2019-02-26T15:18:46.818Z,28.03
2019-02-26T15:21:20.232Z,28.13
2019-02-26T15:23:53.564Z,28.56
2019-02-26T15:26:26.962Z,28.60
2019-02-26T15:29:00.307Z,28.70
2019-02-26T15:31:33.745Z,28.22
2019-02-26T15:34:07.137Z,28.07
2019-02-26T15:36:40.635Z,28.14
2019-02-26T15:39:14.116Z,28.22
2019-02-26T15:41:50.215Z,28.29
2019-02-26T15:44:22.655Z,28.04
2019-02-26T15:46:55.965Z,27.90
2019-02-26T15:49:29.349Z,28.20
2019-02-26T15:52:02.651Z,28.28
2019-02-26T15:54:35.973Z,28.47
2019-02-26T15:57:09.639Z,28.58
2019-02-26T15:59:43.029Z,28.57
2019-02-26T16:02:17.097Z,28.30
2019-02-26T16:04:50.940Z,28.82
2019-02-26T16:07:24.358Z,28.96
2019-02-26T16:09:57.646Z,29.20
2019-02-26T16:12:31.101Z,29.49
2019-02-26T16:15:08.097Z,29.67
2019-02-26T16:17:41.947Z,29.73
2019-02-26T16:20:18.075Z,30.32
2019-02-26T16:22:51.885Z,30.33
2019-02-26T16:25:25.172Z,30.46
2019-02-26T16:27:59.744Z,30.53
2019-02-26T16:30:39.007Z,30.14
2019-02-26T16:33:15.789Z,30.54
2019-02-26T16:35:49.085Z,30.95
2019-02-26T16:38:22.512Z,30.75
2019-02-26T16:40:57.114Z,31.14
2019-02-26T16:43:32.045Z,31.63
2019-02-26T16:46:08.511Z,32.04
2019-02-26T16:48:41.729Z,32.60
2019-02-26T16:51:16.671Z,32.57
2019-02-26T16:53:50.352Z,33.52
2019-02-26T16:56:23.748Z,33.52
2019-02-26T16:58:57.326Z,35.00
2019-02-26T17:01:30.654Z,35.00
2019-02-26T17:04:05.613Z,35.06
2019-02-26T17:06:39.154Z,35.08
2019-02-26T17:09:12.781Z,35.57
2019-02-26T17:11:47.077Z,35.57
2019-02-26T17:14:21.806Z,35.60
2019-02-26T17:16:55.196Z,37.49
2019-02-26T17:19:28.486Z,38.88
2019-02-26T17:22:04.581Z,40.71
2019-02-26T17:24:37.019Z,42.24
2019-02-26T17:27:10.394Z,43.29
2019-02-26T17:29:43.790Z,44.27
2019-02-26T17:32:17.253Z,45.25
2019-02-26T17:34:50.573Z,46.03
2019-02-26T17:37:24.153Z,46.54
2019-02-26T17:39:57.470Z,46.47
2019-02-26T17:42:30.881Z,46.41
2019-02-26T17:45:06.694Z,47.30
2019-02-26T17:47:40.296Z,48.17
2019-02-26T17:50:19.381Z,48.94
2019-02-26T17:52:52.790Z,48.60
2019-02-26T17:55:26.188Z,47.76
2019-02-26T17:58:00.773Z,46.73
2019-02-26T18:00:38.199Z,46.76
2019-02-26T18:03:11.755Z,46.90
2019-02-26T18:05:51.223Z,47.35
2019-02-26T18:08:20.191Z,47.85
2019-02-26T18:10:53.489Z,48.93
2019-02-26T18:13:26.873Z,49.62
2019-02-26T18:16:08.709Z,50.60
2019-02-26T18:18:35.338Z,51.60
2019-02-26T18:21:08.655Z,52.02
2019-02-26T18:23:42.013Z,52.72
2019-02-26T18:26:17.539Z,51.55
2019-02-26T18:28:50.437Z,52.36
2019-02-26T18:31:26.398Z,52.66
2019-02-26T18:33:58.954Z,53.29
2019-02-26T18:36:32.319Z,53.09
2019-02-26T18:39:06.521Z,53.51
2019-02-26T18:41:39.827Z,53.79
2019-02-26T18:44:13.145Z,51.87
2019-02-26T18:46:46.558Z,50.14
2019-02-26T18:49:21.846Z,48.47
2019-02-26T18:51:54.973Z,47.76
2019-02-26T18:54:28.353Z,46.67
2019-02-26T18:57:02.107Z,46.52
2019-02-26T18:59:35.558Z,46.21
2019-02-26T19:02:08.855Z,46.60
2019-02-26T19:04:42.269Z,48.41
2019-02-26T19:07:15.586Z,50.20
2019-02-26T19:09:48.926Z,51.51
2019-02-26T19:12:22.281Z,53.19
2019-02-26T19:14:55.767Z,53.66
2019-02-26T19:17:29.099Z,55.26
2019-02-26T19:20:02.465Z,55.58
2019-02-26T19:22:35.886Z,56.85
2019-02-26T19:25:09.822Z,57.85
2019-02-26T19:27:43.230Z,58.72
2019-02-26T19:30:20.804Z,59.17
2019-02-26T19:32:54.219Z,58.50
2019-02-26T19:35:27.619Z,58.25
2019-02-26T19:38:02.877Z,57.37
2019-02-26T19:40:54.567Z,57.06
2019-02-26T19:43:28.900Z,57.03
2019-02-26T19:46:02.328Z,57.06
2019-02-26T19:48:35.736Z,57.04
2019-02-26T19:51:09.108Z,58.13
2019-02-26T19:53:42.451Z,58.11
2019-02-26T19:56:15.793Z,58.17
2019-02-26T19:58:49.133Z,58.50
2019-02-26T20:01:25.443Z,59.37
2019-02-26T20:03:57.718Z,59.29
2019-02-26T20:06:31.154Z,60.17
2019-02-26T20:09:06.525Z,60.32
2019-02-26T20:11:40.009Z,60.50
2019-02-26T20:14:14.801Z,61.27
2019-02-26T20:16:48.382Z,61.76
2019-02-26T20:19:21.724Z,62.03
2019-02-26T20:21:55.113Z,62.23
2019-02-26T20:24:28.584Z,63.14
2019-02-26T20:27:02.202Z,62.75
2019-02-26T20:29:35.602Z,62.22
2019-02-26T20:32:08.987Z,62.79
2019-02-26T20:34:42.365Z,62.89
2019-02-26T20:37:15.848Z,63.24
2019-02-26T20:39:49.165Z,63.30
2019-02-26T20:42:22.482Z,63.53
2019-02-26T20:44:58.928Z,63.98
2019-02-26T20:47:31.621Z,64.65
2019-02-26T20:50:08.481Z,64.52
2019-02-26T20:52:41.784Z,65.07
2019-02-26T20:55:29.273Z,64.72
2019-02-26T20:58:02.726Z,65.02
2019-02-26T21:00:42.243Z,64.52
2019-02-26T21:03:11.177Z,64.53
2019-02-26T21:05:45.349Z,64.06
2019-02-26T21:08:18.891Z,63.80
2019-02-26T21:10:52.224Z,64.23
2019-02-26T21:13:25.573Z,65.19
2019-02-26T21:15:58.880Z,64.16
2019-02-26T21:18:32.234Z,63.05
2019-02-26T21:21:05.587Z,62.93
2019-02-26T21:23:38.993Z,63.07
2019-02-26T21:26:12.405Z,63.17
2019-02-26T21:28:45.792Z,63.66
2019-02-26T21:31:19.657Z,64.21
2019-02-26T21:33:53.111Z,65.01
2019-02-26T21:36:27.921Z,65.65
2019-02-26T21:39:01.447Z,66.23
2019-02-26T21:41:34.814Z,67.28
2019-02-26T21:44:08.917Z,66.83
2019-02-26T21:46:42.896Z,66.47
2019-02-26T21:49:16.188Z,67.47
2019-02-26T21:51:49.600Z,67.89
2019-02-26T21:54:24.730Z,68.03
2019-02-26T21:56:58.097Z,67.64
2019-02-26T21:59:32.772Z,68.00
2019-02-26T22:02:06.771Z,68.64
2019-02-26T22:04:40.274Z,68.54
2019-02-26T22:07:13.650Z,68.52
2019-02-26T22:09:47.042Z,68.45
2019-02-26T22:12:21.843Z,68.48
2019-02-26T22:14:57.209Z,68.47
2019-02-26T22:17:30.573Z,68.16
2019-02-26T22:20:09.189Z,68.14
2019-02-26T22:22:41.760Z,68.48
2019-02-26T22:25:17.013Z,68.44
2019-02-26T22:27:50.406Z,69.20
2019-02-26T22:30:23.706Z,69.90
2019-02-26T22:32:57.259Z,69.85
2019-02-26T22:35:30.594Z,69.63
2019-02-26T22:38:03.972Z,69.40
2019-02-26T22:40:37.368Z,70.02
2019-02-26T22:43:13.442Z,69.82
2019-02-26T22:45:45.745Z,69.71
2019-02-26T22:48:19.081Z,69.61
2019-02-26T22:50:52.412Z,69.73
2019-02-26T22:53:25.757Z,69.97
2019-02-26T22:55:59.143Z,70.74
2019-02-26T22:58:35.635Z,70.95
2019-02-26T23:01:14.900Z,70.97
2019-02-26T23:03:48.388Z,70.99
2019-02-26T23:06:21.799Z,71.36
2019-02-26T23:08:55.157Z,71.21
2019-02-26T23:11:31.702Z,71.83
2019-02-26T23:14:04.976Z,72.43
2019-02-26T23:16:39.108Z,71.69
2019-02-26T23:19:13.065Z,71.28
2019-02-26T23:21:49.803Z,71.19
2019-02-26T23:24:21.680Z,70.92
2019-02-26T23:26:55.372Z,70.74
2019-02-26T23:29:28.767Z,71.06
2019-02-26T23:32:05.764Z,71.81
2019-02-26T23:34:37.372Z,72.25
2019-02-26T23:37:10.802Z,72.18
2019-02-26T23:39:44.137Z,72.05
2019-02-26T23:42:17.612Z,72.40
2019-02-26T23:44:51.580Z,72.68
2019-02-26T23:47:24.906Z,73.08
2019-02-26T23:49:58.236Z,73.67
2019-02-26T23:52:31.660Z,74.06
2019-02-26T23:55:06.432Z,74.22
2019-02-26T23:57:39.889Z,74.39
